Time;durP1;ratioP1;P1;durP2;ratioP2;P2;SDS_P1;SDS_P2;PMS_P1;PMS_P2;Temp;Humidity;BMP_temperature;BMP_pressure;BME280_temperature;BME280_humidity;BME280_pressure;Samples;Min_cycle;Max_cycle;Signal;HPM_P1;HPM_P2
2022/10/06 00:02:34;;;;;;;8.93;6.37;;;19.40;80.70;;;;;;10830510;32;20065;-77
2022/10/06 00:08:39;;;;;;;6.18;4.28;;;19.30;80.90;;;;;;10817080;32;20050;-78
2022/10/06 00:14:40;;;;;;;8.13;5.87;;;19.30;81.00;;;;;;10830230;32;20032;-77
2022/10/06 00:20:42;;;;;;;9.25;5.62;;;19.30;81.10;;;;;;10830015;32;20436;-78
2022/10/06 00:26:50;;;;;;;10.02;7.35;;;19.30;81.20;;;;;;10825680;32;20023;-75
2022/10/06 00:33:03;;;;;;;8.80;5.65;;;19.30;81.40;;;;;;10828844;33;20075;-75
2022/10/06 00:39:05;;;;;;;8.85;6.35;;;19.30;81.50;;;;;;10816354;33;20015;-74
2022/10/06 00:45:19;;;;;;;8.45;6.25;;;19.30;81.40;;;;;;10829328;33;20032;-76
2022/10/06 00:51:22;;;;;;;10.30;5.70;;;19.30;81.40;;;;;;10829162;33;20054;-74
2022/10/06 00:57:25;;;;;;;9.07;5.80;;;19.30;81.40;;;;;;10829006;33;20397;-74
2022/10/06 01:03:32;;;;;;;8.00;6.40;;;19.30;81.60;;;;;;10829186;33;20042;-75
2022/10/06 01:09:34;;;;;;;9.55;6.85;;;19.30;81.50;;;;;;10824946;33;20109;-75
2022/10/06 01:15:54;;;;;;;13.48;6.03;;;19.20;81.70;;;;;;10824731;33;20054;-75
2022/10/06 01:22:03;;;;;;;10.57;5.97;;;19.20;81.60;;;;;;10817644;33;20104;-75
2022/10/06 01:28:08;;;;;;;9.45;6.57;;;19.20;81.70;;;;;;10828820;33;20047;-75
2022/10/06 01:34:10;;;;;;;7.95;6.45;;;19.20;81.60;;;;;;10829326;32;20063;-75
2022/10/06 01:40:13;;;;;;;8.32;5.18;;;19.20;81.70;;;;;;10832962;32;20355;-74
2022/10/06 01:46:28;;;;;;;11.05;8.15;;;19.20;81.60;;;;;;10834989;32;20058;-75
2022/10/06 01:52:32;;;;;;;11.05;7.43;;;19.20;81.60;;;;;;10834886;32;20235;-75
2022/10/06 01:58:34;;;;;;;8.07;6.12;;;19.20;81.60;;;;;;10821532;32;20336;-75
2022/10/06 02:04:36;;;;;;;7.65;6.05;;;19.20;81.50;;;;;;10834194;32;20032;-75
2022/10/06 02:10:39;;;;;;;11.30;7.25;;;19.20;81.60;;;;;;10834034;32;20408;-75
2022/10/06 02:16:42;;;;;;;11.20;8.15;;;19.20;81.60;;;;;;10833750;32;20078;-75
2022/10/06 02:23:15;;;;;;;8.02;6.47;;;19.20;81.70;;;;;;10833692;32;20318;-75
2022/10/06 02:29:19;;;;;;;7.12;5.45;;;19.20;81.70;;;;;;10833611;32;20300;-75
2022/10/06 02:35:21;;;;;;;10.02;7.25;;;19.20;81.70;;;;;;10819891;32;20036;-75
2022/10/06 02:41:24;;;;;;;7.87;6.35;;;19.20;81.70;;;;;;10828841;32;20032;-75
2022/10/06 02:47:26;;;;;;;8.45;6.70;;;19.20;81.70;;;;;;10828518;32;20031;-75
2022/10/06 02:53:28;;;;;;;7.30;4.93;;;19.20;81.80;;;;;;10832370;32;20028;-75
2022/10/06 02:59:32;;;;;;;9.27;6.12;;;19.20;81.80;;;;;;10828186;33;20031;-75
2022/10/06 03:05:35;;;;;;;6.97;5.40;;;19.10;81.90;;;;;;10819143;32;20404;-75
2022/10/06 03:11:40;;;;;;;8.95;6.32;;;19.10;81.90;;;;;;10831965;32;20418;-75
2022/10/06 03:17:47;;;;;;;9.82;7.53;;;19.10;81.90;;;;;;10827907;32;20052;-75
2022/10/06 03:23:52;;;;;;;12.02;7.85;;;19.00;82.00;;;;;;10827331;33;20032;-75
2022/10/06 03:29:54;;;;;;;9.52;7.32;;;19.00;82.10;;;;;;10831443;32;20063;-75
2022/10/06 03:36:11;;;;;;;9.35;7.10;;;19.10;82.30;;;;;;10831057;32;20040;-75
2022/10/06 03:42:14;;;;;;;10.23;6.82;;;19.10;82.20;;;;;;10831082;32;20024;-75
2022/10/06 03:48:16;;;;;;;10.38;8.48;;;19.00;82.20;;;;;;10830606;32;20058;-75
2022/10/06 03:54:19;;;;;;;12.15;7.75;;;19.00;82.20;;;;;;10830350;32;20051;-75
2022/10/06 04:00:21;;;;;;;10.52;8.07;;;19.00;82.40;;;;;;10829973;32;20203;-75
2022/10/06 04:06:25;;;;;;;15.60;10.43;;;19.00;82.40;;;;;;10830237;32;20104;-75
2022/10/06 04:12:27;;;;;;;18.33;10.25;;;19.00;82.50;;;;;;10463476;32;12065943;-75
2022/10/06 04:18:30;;;;;;;13.40;9.82;;;18.90;82.50;;;;;;10753672;33;20043;-75
2022/10/06 04:24:32;;;;;;;12.23;9.50;;;18.90;82.70;;;;;;10738618;33;20032;-75
2022/10/06 04:30:57;;;;;;;19.48;9.95;;;18.90;82.80;;;;;;10752935;33;20055;-75
2022/10/06 04:37:02;;;;;;;10.75;8.15;;;18.80;82.80;;;;;;10752801;33;20386;-75
2022/10/06 04:43:05;;;;;;;10.70;7.87;;;18.80;82.90;;;;;;10816636;33;20337;-75
2022/10/06 04:49:31;;;;;;;11.88;8.50;;;18.80;83.00;;;;;;10829516;33;20035;-76
2022/10/06 04:55:33;;;;;;;10.85;7.75;;;18.80;83.00;;;;;;10830596;33;20090;-74
2022/10/06 05:01:36;;;;;;;11.38;7.30;;;18.80;83.00;;;;;;10829378;33;20413;-74
2022/10/06 05:07:39;;;;;;;13.40;9.88;;;18.80;83.00;;;;;;10827477;32;20024;-74
2022/10/06 05:13:42;;;;;;;10.93;8.32;;;18.70;83.20;;;;;;10834656;32;20062;-75
2022/10/06 05:20:28;;;;;;;12.05;7.78;;;18.70;83.20;;;;;;10835884;32;20298;-74
2022/10/06 05:26:32;;;;;;;12.68;9.10;;;18.80;83.10;;;;;;10836315;32;20051;-75
2022/10/06 05:32:35;;;;;;;10.43;7.75;;;18.70;83.20;;;;;;10835608;32;20028;-74
2022/10/06 05:38:38;;;;;;;13.62;9.30;;;18.70;83.10;;;;;;10830886;33;20043;-75
2022/10/06 05:44:40;;;;;;;10.77;8.30;;;18.70;83.20;;;;;;10832728;32;20024;-75
2022/10/06 05:50:43;;;;;;;11.15;8.73;;;18.70;83.50;;;;;;10834713;32;20440;-75
2022/10/06 05:56:45;;;;;;;10.43;7.87;;;18.60;83.60;;;;;;10834498;32;20050;-75
2022/10/06 06:02:48;;;;;;;10.50;8.70;;;18.60;83.70;;;;;;10812959;32;20073;-75
2022/10/06 06:09:08;;;;;;;13.35;10.65;;;18.70;83.50;;;;;;10803835;32;20054;-75
2022/10/06 06:21:35;;;;;;;11.90;8.88;;;18.60;83.60;;;;;;10829355;32;20024;-75
2022/10/06 06:27:40;;;;;;;11.77;8.98;;;18.70;83.80;;;;;;10828616;33;20035;-76
2022/10/06 06:33:43;;;;;;;9.30;7.68;;;18.70;83.90;;;;;;10833102;32;20071;-76
2022/10/06 06:39:46;;;;;;;10.00;7.62;;;18.70;83.60;;;;;;10829051;33;20016;-76
2022/10/06 06:45:48;;;;;;;12.57;9.82;;;18.80;83.60;;;;;;10832946;32;20460;-76
2022/10/06 06:51:54;;;;;;;12.60;9.25;;;18.70;83.70;;;;;;10828624;33;20032;-75
2022/10/06 06:57:57;;;;;;;12.02;8.00;;;18.80;83.70;;;;;;10832548;32;20070;-75
2022/10/06 07:03:59;;;;;;;17.25;12.15;;;18.80;83.60;;;;;;10829483;32;20028;-76
2022/10/06 07:10:02;;;;;;;14.85;10.80;;;18.80;83.50;;;;;;10828154;32;20071;-75
2022/10/06 07:29:04;;;;;;;8.50;6.35;;;18.90;83.60;;;;;;10831732;32;20016;-75
2022/10/06 07:35:07;;;;;;;16.87;11.57;;;19.00;83.60;;;;;;10817578;32;20024;-76
2022/10/06 07:41:11;;;;;;;17.73;12.43;;;19.10;83.50;;;;;;10817895;32;20019;-75
2022/10/06 07:47:13;;;;;;;15.27;12.07;;;19.20;83.40;;;;;;10830054;32;20384;-75
2022/10/06 07:53:26;;;;;;;10.88;9.10;;;19.20;83.40;;;;;;10814121;33;20337;-75
2022/10/06 07:59:29;;;;;;;16.87;11.90;;;19.30;83.30;;;;;;10830503;32;20345;-75
2022/10/06 08:05:32;;;;;;;15.90;11.50;;;19.30;83.20;;;;;;10828258;32;20120;-75
2022/10/06 08:11:34;;;;;;;12.30;9.73;;;19.50;83.00;;;;;;10814064;33;20093;-76
2022/10/06 08:17:36;;;;;;;13.35;10.85;;;19.50;82.80;;;;;;10830114;32;20015;-74
2022/10/06 08:23:41;;;;;;;12.05;9.40;;;19.60;82.60;;;;;;10816950;32;20051;-77
2022/10/06 08:29:43;;;;;;;13.77;9.60;;;19.70;82.60;;;;;;10829739;32;20404;-77
2022/10/06 08:35:45;;;;;;;12.10;9.27;;;19.80;82.70;;;;;;10816232;33;20047;-75
2022/10/06 08:41:50;;;;;;;11.95;9.15;;;19.80;82.60;;;;;;10813132;33;20074;-75
2022/10/06 08:47:59;;;;;;;11.73;9.43;;;19.80;82.50;;;;;;10834495;32;20054;-75
2022/10/06 08:54:52;;;;;;;14.87;12.70;;;19.90;82.30;;;;;;10833002;32;20028;-74
2022/10/06 09:01:08;;;;;;;11.95;8.70;;;20.00;82.30;;;;;;10783380;33;20430;-75
2022/10/06 09:07:22;;;;;;;7.10;5.43;;;20.10;82.20;;;;;;10791053;33;20036;-75
2022/10/06 09:13:29;;;;;;;9.93;6.45;;;20.20;81.90;;;;;;10793808;33;20424;-75
2022/10/06 09:19:40;;;;;;;9.80;7.15;;;20.30;81.70;;;;;;10790956;33;20025;-77
2022/10/06 09:25:43;;;;;;;7.72;5.15;;;20.40;81.40;;;;;;10792941;33;20047;-78
2022/10/06 09:31:49;;;;;;;6.03;4.28;;;20.60;81.30;;;;;;10794602;33;20028;-77
2022/10/06 09:38:03;;;;;;;7.95;3.55;;;20.70;80.90;;;;;;10830559;33;20019;-78
2022/10/06 09:44:26;;;;;;;7.43;4.22;;;20.80;80.70;;;;;;10835241;32;20058;-79
2022/10/06 09:51:15;;;;;;;4.95;3.17;;;20.80;80.60;;;;;;10834781;32;20039;-78
2022/10/06 09:57:25;;;;;;;5.57;4.32;;;20.80;80.50;;;;;;10834209;32;20025;-77
2022/10/06 10:03:50;;;;;;;7.12;4.93;;;20.80;80.30;;;;;;10834442;32;20058;-78
2022/10/06 10:10:13;;;;;;;6.90;4.45;;;21.00;79.90;;;;;;10834492;32;20060;-77
2022/10/06 10:16:18;;;;;;;10.85;6.53;;;21.10;79.60;;;;;;10820873;32;20071;-77
2022/10/06 10:22:38;;;;;;;6.28;4.45;;;21.30;79.30;;;;;;10833971;32;20054;-77
2022/10/06 10:29:04;;;;;;;7.87;5.35;;;21.30;79.00;;;;;;10830062;32;20042;-77
2022/10/06 10:35:25;;;;;;;10.75;6.47;;;21.30;78.90;;;;;;10833696;32;20111;-79
2022/10/06 10:41:51;;;;;;;8.10;4.80;;;21.30;79.00;;;;;;10821785;32;20051;-77
2022/10/06 10:47:55;;;;;;;5.32;3.83;;;21.20;79.40;;;;;;10829220;33;20063;-77
2022/10/06 10:54:16;;;;;;;6.93;4.82;;;21.30;79.20;;;;;;10833262;32;20046;-77
2022/10/06 11:00:21;;;;;;;11.50;6.32;;;21.60;78.80;;;;;;10851404;32;20054;-77
2022/10/06 11:06:26;;;;;;;10.93;5.95;;;21.80;77.90;;;;;;10832995;32;20082;-78
2022/10/06 11:13:10;;;;;;;7.20;4.70;;;22.10;77.60;;;;;;10830116;32;20035;-78
2022/10/06 11:19:21;;;;;;;7.07;5.87;;;22.40;77.00;;;;;;10751299;33;20033;-78
2022/10/06 11:25:25;;;;;;;12.57;6.35;;;22.80;76.30;;;;;;10753981;33;20032;-76
2022/10/06 11:31:36;;;;;;;15.20;5.90;;;22.70;76.50;;;;;;10749680;33;20017;-76
2022/10/06 11:37:49;;;;;;;10.50;7.60;;;22.50;76.70;;;;;;10749917;33;20029;-76
2022/10/06 11:43:59;;;;;;;11.98;9.80;;;22.40;76.00;;;;;;10750952;33;20028;-78
2022/10/06 11:50:22;;;;;;;12.32;9.13;;;22.50;75.70;;;;;;10750268;33;20024;-81
2022/10/06 11:56:38;;;;;;;16.15;10.25;;;22.70;75.30;;;;;;10819678;33;20423;-77
2022/10/06 12:02:41;;;;;;;12.18;8.32;;;22.80;74.80;;;;;;10826343;33;20321;-79
2022/10/06 12:08:44;;;;;;;12.27;9.88;;;22.80;74.00;;;;;;10830177;32;20063;-77
2022/10/06 12:15:15;;;;;;;10.73;8.60;;;22.80;73.60;;;;;;10829833;32;20032;-77
2022/10/06 12:21:33;;;;;;;7.62;5.72;;;22.70;73.80;;;;;;10830056;32;20024;-77
2022/10/06 12:27:47;;;;;;;8.65;5.62;;;22.50;74.40;;;;;;10825994;33;20297;-78
2022/10/06 12:33:49;;;;;;;8.20;5.80;;;22.40;74.60;;;;;;10825847;33;20027;-77
2022/10/06 12:40:39;;;;;;;7.80;5.07;;;22.20;75.00;;;;;;10825867;33;20020;-78
2022/10/06 12:46:44;;;;;;;17.10;10.57;;;22.20;75.10;;;;;;10794550;33;20020;-78
2022/10/06 12:52:56;;;;;;;9.43;5.97;;;22.10;75.30;;;;;;10829326;33;20408;-77
2022/10/06 12:59:17;;;;;;;8.48;6.53;;;22.20;75.30;;;;;;10829574;33;20050;-76
2022/10/06 13:05:19;;;;;;;12.45;8.43;;;22.10;75.30;;;;;;10825327;33;20393;-77
2022/10/06 13:11:25;;;;;;;9.38;5.80;;;22.10;75.20;;;;;;10829569;33;20032;-76
2022/10/06 13:17:28;;;;;;;9.25;6.45;;;22.20;74.60;;;;;;10829270;33;20058;-76
2022/10/06 13:23:34;;;;;;;8.63;6.40;;;22.40;74.20;;;;;;10829220;33;20036;-76
2022/10/06 13:29:36;;;;;;;11.48;8.52;;;22.50;73.10;;;;;;10829414;32;20028;-76
2022/10/06 13:35:38;;;;;;;11.68;7.43;;;22.60;72.50;;;;;;10835962;32;20269;-77
2022/10/06 13:41:47;;;;;;;11.45;7.65;;;22.70;71.90;;;;;;10831330;33;20051;-76
2022/10/06 13:48:16;;;;;;;11.73;7.00;;;22.80;71.90;;;;;;10830182;32;20347;-78
2022/10/06 13:54:28;;;;;;;8.83;6.07;;;23.00;71.80;;;;;;10754814;33;20457;-80
2022/10/06 14:00:47;;;;;;;7.40;5.50;;;23.00;71.70;;;;;;10755235;33;20028;-77
2022/10/06 14:06:50;;;;;;;10.95;8.13;;;23.10;71.50;;;;;;10751752;33;20425;-77
2022/10/06 14:12:53;;;;;;;10.52;8.07;;;23.20;71.20;;;;;;10755121;27;20044;-77
2022/10/06 14:19:03;;;;;;;10.25;6.80;;;23.30;71.20;;;;;;10751892;33;20044;-78
2022/10/06 14:25:14;;;;;;;10.85;6.70;;;23.40;70.90;;;;;;10756094;33;20032;-76
2022/10/06 14:31:16;;;;;;;10.18;7.50;;;23.40;70.90;;;;;;10789534;33;20028;-77
2022/10/06 14:37:18;;;;;;;11.15;6.90;;;23.30;70.90;;;;;;10796729;33;20047;-78
2022/10/06 14:43:20;;;;;;;9.45;6.70;;;23.30;71.00;;;;;;10796382;33;20024;-77
2022/10/06 14:49:24;;;;;;;9.68;6.80;;;23.30;70.90;;;;;;10796429;33;20360;-76
2022/10/06 14:55:29;;;;;;;8.57;6.37;;;23.30;70.60;;;;;;10795404;33;20078;-77
2022/10/06 15:01:33;;;;;;;9.57;6.12;;;23.30;70.90;;;;;;10795851;33;20016;-77
2022/10/06 15:14:21;;;;;;;11.27;5.65;;;23.10;71.50;;;;;;10827832;32;20032;-77
2022/10/06 15:20:23;;;;;;;7.12;5.25;;;23.20;71.10;;;;;;10831588;32;20043;-78
2022/10/06 15:32:48;;;;;;;8.63;5.82;;;24.50;68.20;;;;;;10831572;32;20040;-77
2022/10/06 15:38:57;;;;;;;9.88;5.30;;;25.00;67.10;;;;;;10831364;32;20389;-77
2022/10/06 15:44:59;;;;;;;16.92;7.20;;;25.70;66.00;;;;;;10831280;32;20024;-78
2022/10/06 15:51:02;;;;;;;7.87;4.47;;;25.80;65.70;;;;;;10830897;32;20055;-77
2022/10/06 15:57:07;;;;;;;49.55;11.32;;;26.20;65.50;;;;;;10830250;32;20032;-77
2022/10/06 16:03:23;;;;;;;6.85;5.07;;;26.50;65.00;;;;;;10830477;32;20055;-78
2022/10/06 16:09:42;;;;;;;10.15;4.20;;;26.50;65.00;;;;;;10830442;32;20059;-77
2022/10/06 16:15:52;;;;;;;8.48;4.95;;;25.30;67.20;;;;;;10825881;33;20035;-77
2022/10/06 16:21:56;;;;;;;6.45;4.43;;;24.40;69.30;;;;;;10825381;32;20058;-77
2022/10/06 16:28:33;;;;;;;13.45;5.12;;;23.80;70.40;;;;;;10830010;32;20384;-77
2022/10/06 16:34:56;;;;;;;8.73;4.72;;;23.30;71.10;;;;;;10827011;33;20071;-77
2022/10/06 16:41:00;;;;;;;7.30;4.40;;;23.00;71.70;;;;;;10829905;33;20324;-77
2022/10/06 16:47:12;;;;;;;6.15;4.25;;;22.70;72.00;;;;;;10828987;33;20055;-77
2022/10/06 16:53:16;;;;;;;5.43;4.43;;;22.50;72.30;;;;;;10826533;33;20078;-77
2022/10/06 16:59:22;;;;;;;7.90;5.53;;;22.30;72.50;;;;;;10825410;33;20058;-77
2022/10/06 17:05:24;;;;;;;7.30;4.78;;;22.20;72.80;;;;;;10831995;32;20016;-78
2022/10/06 17:11:27;;;;;;;6.65;4.47;;;22.00;73.00;;;;;;10836635;32;20024;-78
2022/10/06 17:17:29;;;;;;;9.52;6.50;;;21.80;73.20;;;;;;10836322;32;20024;-78
2022/10/06 17:23:32;;;;;;;7.75;5.65;;;21.80;73.40;;;;;;10834610;32;20024;-78
2022/10/06 17:29:34;;;;;;;8.27;5.37;;;21.70;73.60;;;;;;10831598;33;20028;-75
2022/10/06 17:35:36;;;;;;;8.68;5.15;;;21.60;73.80;;;;;;10835596;32;20352;-78
2022/10/06 17:41:40;;;;;;;17.00;6.60;;;21.50;73.90;;;;;;10835584;32;20027;-78
2022/10/06 17:47:42;;;;;;;9.18;6.37;;;21.40;74.10;;;;;;10835385;32;20024;-78
2022/10/06 17:53:49;;;;;;;8.90;6.60;;;21.30;74.30;;;;;;10833195;32;20028;-78
2022/10/06 17:59:51;;;;;;;9.43;6.85;;;21.30;74.50;;;;;;10830954;32;20028;-78
2022/10/06 18:06:02;;;;;;;10.32;6.57;;;21.30;74.60;;;;;;10830015;32;20042;-78
2022/10/06 18:12:06;;;;;;;9.85;7.85;;;21.10;74.80;;;;;;10834466;32;20346;-78
2022/10/06 18:18:09;;;;;;;9.77;6.82;;;21.10;75.10;;;;;;10829693;32;20038;-78
2022/10/06 18:24:16;;;;;;;8.48;7.03;;;21.00;75.40;;;;;;10831748;32;20028;-78
2022/10/06 18:30:33;;;;;;;9.50;7.17;;;21.00;75.70;;;;;;10829481;33;20028;-78
2022/10/06 18:36:35;;;;;;;9.13;7.28;;;20.90;75.70;;;;;;10829561;33;20432;-78
2022/10/06 18:42:38;;;;;;;10.05;8.38;;;20.80;75.90;;;;;;10828375;33;20027;-78
2022/10/06 18:48:59;;;;;;;12.10;9.63;;;20.80;76.20;;;;;;10833128;32;20024;-78
2022/10/06 18:55:01;;;;;;;15.57;9.93;;;20.70;76.50;;;;;;10832967;32;20050;-78
2022/10/06 19:01:04;;;;;;;12.98;9.85;;;20.70;76.70;;;;;;10832631;32;20055;-78
2022/10/06 19:07:07;;;;;;;14.25;11.20;;;20.60;76.80;;;;;;10832478;32;20047;-77
2022/10/06 19:13:10;;;;;;;11.15;9.18;;;20.60;76.90;;;;;;10832189;32;20024;-77
2022/10/06 19:19:18;;;;;;;13.20;9.48;;;20.60;77.10;;;;;;10827115;32;20325;-77
2022/10/06 19:25:20;;;;;;;12.57;9.07;;;20.50;77.30;;;;;;10827833;33;20024;-78
2022/10/06 19:31:22;;;;;;;13.43;11.52;;;20.40;77.40;;;;;;10830908;32;20051;-78
2022/10/06 19:37:41;;;;;;;12.52;10.23;;;20.30;77.50;;;;;;10830524;32;20027;-77
2022/10/06 19:43:44;;;;;;;13.85;10.80;;;20.30;77.70;;;;;;10818163;32;20016;-77
2022/10/06 19:49:46;;;;;;;14.82;12.25;;;20.30;77.80;;;;;;10831135;32;20051;-77
2022/10/06 19:55:48;;;;;;;16.62;13.90;;;20.20;77.90;;;;;;10830747;32;20020;-77
2022/10/06 20:01:52;;;;;;;17.42;14.10;;;20.20;78.00;;;;;;10830930;32;20012;-77
2022/10/06 20:07:55;;;;;;;15.43;13.50;;;20.20;78.10;;;;;;10829618;32;20427;-77
2022/10/06 20:13:58;;;;;;;15.30;12.45;;;20.10;78.20;;;;;;10830237;32;20043;-77
2022/10/06 20:20:00;;;;;;;18.20;13.45;;;20.00;78.30;;;;;;10817010;32;20024;-77
2022/10/06 20:26:13;;;;;;;20.33;14.50;;;20.00;78.40;;;;;;10825848;33;20409;-77
2022/10/06 20:33:11;;;;;;;18.60;15.50;;;19.90;78.50;;;;;;10825922;33;20353;-77
2022/10/06 20:45:40;;;;;;;18.33;13.65;;;19.80;78.70;;;;;;10837530;32;20024;-77
2022/10/06 20:51:48;;;;;;;16.00;13.30;;;19.80;79.00;;;;;;10837194;32;20054;-77
2022/10/06 20:57:51;;;;;;;15.40;13.77;;;19.70;79.20;;;;;;10836992;32;20036;-75
2022/10/06 21:03:54;;;;;;;15.88;11.55;;;19.70;79.20;;;;;;10835772;32;20454;-74
2022/10/06 21:09:56;;;;;;;14.98;11.02;;;19.60;79.40;;;;;;10819350;33;20063;-75
2022/10/06 21:15:58;;;;;;;16.05;12.75;;;19.50;79.70;;;;;;10835819;32;20162;-75
2022/10/06 21:22:00;;;;;;;20.45;13.95;;;19.50;79.90;;;;;;10836288;32;20042;-75
2022/10/06 21:28:03;;;;;;;16.50;12.85;;;19.40;80.00;;;;;;10836154;32;20035;-75
2022/10/06 21:34:06;;;;;;;17.52;13.20;;;19.50;80.30;;;;;;10835578;32;20058;-75
2022/10/06 21:40:09;;;;;;;17.87;13.27;;;19.50;80.20;;;;;;10835565;32;20047;-75
2022/10/06 21:46:11;;;;;;;13.57;11.50;;;19.40;80.10;;;;;;10835441;32;20047;-75
2022/10/06 21:52:12;;;;;;;18.00;15.77;;;19.30;80.00;;;;;;10834249;32;20321;-75
2022/10/06 21:58:14;;;;;;;17.15;14.25;;;19.30;80.20;;;;;;10834931;32;20396;-75
2022/10/06 22:04:17;;;;;;;19.73;15.13;;;19.30;80.20;;;;;;10834946;32;20016;-75
2022/10/06 22:10:19;;;;;;;13.35;10.57;;;19.30;80.30;;;;;;10821382;32;20054;-75
2022/10/06 22:16:23;;;;;;;13.27;10.60;;;19.20;80.30;;;;;;10835573;27;20040;-75
2022/10/06 22:22:25;;;;;;;14.07;11.35;;;19.20;80.30;;;;;;10834172;32;20024;-75
2022/10/06 22:28:27;;;;;;;13.68;12.10;;;19.20;80.40;;;;;;10833903;32;20054;-75
2022/10/06 22:34:29;;;;;;;14.93;13.02;;;19.10;80.40;;;;;;10831173;32;20039;-75
2022/10/06 22:40:31;;;;;;;10.93;9.23;;;19.10;80.40;;;;;;10833649;32;20028;-74
2022/10/06 22:46:35;;;;;;;14.10;10.07;;;19.10;80.40;;;;;;10820167;32;20055;-74
2022/10/06 22:52:37;;;;;;;13.23;8.75;;;19.10;80.40;;;;;;10829075;33;20047;-75
2022/10/06 22:58:41;;;;;;;11.38;8.02;;;19.10;80.50;;;;;;10832898;32;20396;-75
2022/10/06 23:04:43;;;;;;;12.23;9.43;;;19.00;80.50;;;;;;10832490;32;20020;-75
2022/10/06 23:10:45;;;;;;;10.45;8.57;;;19.00;80.60;;;;;;10832574;32;20046;-75
2022/10/06 23:16:48;;;;;;;10.02;8.35;;;19.00;80.70;;;;;;10832150;32;20032;-75
2022/10/06 23:22:49;;;;;;;12.48;9.20;;;18.90;80.60;;;;;;10827976;33;20430;-75
2022/10/06 23:29:21;;;;;;;10.23;8.38;;;18.90;80.70;;;;;;10814631;33;20036;-75
2022/10/06 23:35:23;;;;;;;8.35;6.47;;;18.80;80.70;;;;;;10827524;33;20051;-75
2022/10/06 23:41:25;;;;;;;7.47;5.55;;;18.90;80.90;;;;;;10831422;32;20059;-75
2022/10/06 23:47:27;;;;;;;7.97;6.72;;;18.80;80.90;;;;;;10818144;32;20027;-74
2022/10/06 23:53:30;;;;;;;10.32;6.55;;;18.70;80.90;;;;;;10831038;32;20409;-74
2022/10/06 23:59:32;;;;;;;7.82;6.60;;;18.70;81.00;;;;;;10828811;32;20032;-74
